createdAt,value
2018-07-10T00:02:26.184Z,65.40
2018-07-10T00:07:14.763Z,65.40
2018-07-10T00:11:56.766Z,64.60
2018-07-10T00:14:25.799Z,64.30
2018-07-10T00:16:54.787Z,64.30
2018-07-10T00:19:23.791Z,64.10
2018-07-10T00:21:52.805Z,64.00
2018-07-10T00:24:21.904Z,64.00
2018-07-10T00:26:50.960Z,63.80
2018-07-10T00:29:19.973Z,64.10
2018-07-10T00:31:48.989Z,63.90
2018-07-10T00:34:18.042Z,63.80
2018-07-10T00:36:47.050Z,63.70
2018-07-10T00:39:16.185Z,63.60
2018-07-10T00:41:45.166Z,63.90
2018-07-10T00:44:14.226Z,64.20
2018-07-10T00:46:43.178Z,63.90
2018-07-10T00:49:12.218Z,64.00
2018-07-10T00:51:41.696Z,64.70
2018-07-10T00:54:10.737Z,63.80
2018-07-10T00:56:39.788Z,64.10
2018-07-10T00:59:08.821Z,64.00
2018-07-10T01:01:37.916Z,64.40
2018-07-10T01:04:06.961Z,63.80
2018-07-10T01:06:35.989Z,64.40
2018-07-10T01:09:05.213Z,64.00
2018-07-10T01:11:34.345Z,64.50
2018-07-10T01:14:03.377Z,64.40
2018-07-10T01:16:35.103Z,64.50
2018-07-10T01:19:19.929Z,64.80
2018-07-10T01:21:48.993Z,64.40
2018-07-10T01:24:18.484Z,64.40
2018-07-10T01:26:49.220Z,64.50
2018-07-10T01:29:24.329Z,64.60
2018-07-10T01:31:54.833Z,64.50
2018-07-10T01:34:24.308Z,64.40
2018-07-10T01:36:53.938Z,63.90
2018-07-10T01:39:22.970Z,64.30
2018-07-10T01:41:52.057Z,63.70
2018-07-10T01:44:21.335Z,63.80
2018-07-10T01:46:50.303Z,63.60
2018-07-10T01:49:19.359Z,63.40
2018-07-10T01:51:48.408Z,64.00
2018-07-10T01:54:17.465Z,63.70
2018-07-10T01:56:46.563Z,63.60
2018-07-10T01:59:16.262Z,63.80
2018-07-10T02:01:45.301Z,63.20
2018-07-10T02:04:14.337Z,63.40
2018-07-10T02:06:43.341Z,63.20
2018-07-10T02:09:12.393Z,63.40
2018-07-10T02:11:41.397Z,63.20
2018-07-10T02:14:10.551Z,63.10
2018-07-10T02:16:39.598Z,63.70
2018-07-10T02:19:08.641Z,63.10
2018-07-10T02:21:38.052Z,63.20
2018-07-10T02:24:07.180Z,62.90
2018-07-10T02:31:33.755Z,62.80
2018-07-10T02:34:02.764Z,62.80
2018-07-10T02:36:31.825Z,62.90
2018-07-10T02:39:00.902Z,62.80
2018-07-10T02:41:29.940Z,62.50
2018-07-10T02:44:01.940Z,62.60
2018-07-10T02:46:32.889Z,62.60
2018-07-10T02:49:05.555Z,62.90
2018-07-10T02:51:35.860Z,63.20
2018-07-10T02:54:04.941Z,62.80
2018-07-10T02:56:33.962Z,63.00
2018-07-10T02:59:04.148Z,63.30
2018-07-10T03:01:33.191Z,63.90
2018-07-10T03:04:02.209Z,64.50
2018-07-10T03:06:33.520Z,64.50
2018-07-10T03:09:04.756Z,64.30
2018-07-10T03:13:54.950Z,64.50
2018-07-10T03:16:24.119Z,65.30
2018-07-10T03:18:53.180Z,65.10
2018-07-10T03:21:22.262Z,65.20
2018-07-10T03:23:51.318Z,65.10
2018-07-10T03:26:20.377Z,64.60
2018-07-10T03:28:49.942Z,64.90
2018-07-10T03:31:18.990Z,64.20
2018-07-10T03:33:47.988Z,64.60
2018-07-10T03:36:17.181Z,64.70
2018-07-10T03:38:46.214Z,64.70
2018-07-10T03:41:15.246Z,63.90
2018-07-10T03:43:44.317Z,64.80
2018-07-10T03:46:13.418Z,64.30
2018-07-10T03:48:42.519Z,65.00
2018-07-10T03:51:12.204Z,64.70
2018-07-10T03:58:39.359Z,64.80
2018-07-10T04:01:08.401Z,64.50
2018-07-10T04:03:37.506Z,64.20
2018-07-10T04:06:07.290Z,64.70
2018-07-10T04:11:06.186Z,64.50
2018-07-10T04:13:36.462Z,64.60
2018-07-10T04:16:05.547Z,64.80
2018-07-10T04:18:35.682Z,64.60
2018-07-10T04:21:19.127Z,65.50
2018-07-10T04:23:50.535Z,65.50
2018-07-10T04:26:21.313Z,65.90
2018-07-10T04:29:04.718Z,65.50
2018-07-10T04:31:37.502Z,65.40
2018-07-10T04:34:07.147Z,64.50
2018-07-10T04:36:36.538Z,65.60
2018-07-10T04:39:05.569Z,66.30
2018-07-10T04:41:36.545Z,65.80
2018-07-10T04:44:13.183Z,65.90
2018-07-10T04:46:44.769Z,66.20
2018-07-10T04:49:36.999Z,65.90
2018-07-10T04:52:16.565Z,65.90
2018-07-10T04:54:51.892Z,66.50
2018-07-10T04:57:25.621Z,66.10
2018-07-10T04:59:54.685Z,66.60
2018-07-10T05:02:24.495Z,66.20
2018-07-10T05:04:54.515Z,66.70
2018-07-10T05:07:23.597Z,66.70
2018-07-10T05:09:52.597Z,66.90
2018-07-10T05:12:21.621Z,67.30
2018-07-10T05:14:51.207Z,67.40
2018-07-10T05:17:20.381Z,67.20
2018-07-10T05:19:49.513Z,66.90
2018-07-10T05:22:18.527Z,66.50
2018-07-10T05:24:47.559Z,66.30
2018-07-10T05:27:16.729Z,66.30
2018-07-10T05:29:45.794Z,66.60
2018-07-10T05:32:14.855Z,66.50
2018-07-10T05:34:43.941Z,66.50
2018-07-10T05:37:18.099Z,66.40
2018-07-10T05:39:47.128Z,66.30
2018-07-10T05:42:16.161Z,65.90
2018-07-10T05:44:45.997Z,66.90
2018-07-10T05:47:15.069Z,66.20
2018-07-10T05:49:44.099Z,66.00
2018-07-10T05:52:13.144Z,65.80
2018-07-10T05:54:44.405Z,66.20
2018-07-10T05:57:13.449Z,66.60
2018-07-10T05:59:42.495Z,65.90
2018-07-10T06:02:11.497Z,66.50
2018-07-10T06:04:40.556Z,66.70
2018-07-10T06:07:09.573Z,66.40
2018-07-10T06:09:38.617Z,66.40
2018-07-10T06:12:07.703Z,66.30
2018-07-10T06:14:36.720Z,66.60
2018-07-10T06:17:06.185Z,66.10
2018-07-10T06:19:35.370Z,65.90
2018-07-10T06:22:04.369Z,66.00
2018-07-10T06:24:33.475Z,65.80
2018-07-10T06:27:06.697Z,66.00
2018-07-10T06:32:20.114Z,65.70
2018-07-10T06:34:50.609Z,65.80
2018-07-10T06:37:25.171Z,65.70
2018-07-10T06:39:54.203Z,66.10
2018-07-10T06:42:32.260Z,66.50
2018-07-10T06:45:03.675Z,66.30
2018-07-10T06:47:49.213Z,66.50
2018-07-10T06:50:20.925Z,66.30
2018-07-10T06:52:52.341Z,66.20
2018-07-10T06:55:21.786Z,66.10
2018-07-10T06:57:52.892Z,66.00
2018-07-10T07:00:21.908Z,65.90
2018-07-10T07:02:50.936Z,65.70
2018-07-10T07:05:20.094Z,65.60
2018-07-10T07:07:49.132Z,65.30
2018-07-10T07:10:18.252Z,65.00
2018-07-10T07:12:47.589Z,64.60
2018-07-10T07:15:20.567Z,65.50
2018-07-10T07:17:51.975Z,64.10
2018-07-10T07:20:22.258Z,62.80
2018-07-10T07:22:51.816Z,62.50
2018-07-10T07:25:20.812Z,62.00
2018-07-10T07:27:49.886Z,61.30
2018-07-10T07:30:18.909Z,61.50
2018-07-10T07:32:48.731Z,61.50
2018-07-10T07:35:17.804Z,60.70
2018-07-10T07:37:47.073Z,59.80
2018-07-10T07:40:16.049Z,60.00
2018-07-10T07:42:45.037Z,59.00
2018-07-10T07:45:14.066Z,58.60
2018-07-10T07:47:43.488Z,57.60
2018-07-10T07:50:12.522Z,59.20
2018-07-10T07:52:41.612Z,59.30
2018-07-10T07:55:10.672Z,58.40
2018-07-10T07:57:39.676Z,58.00
2018-07-10T08:02:37.289Z,58.30
2018-07-10T08:05:06.331Z,58.00
2018-07-10T08:07:35.425Z,58.00
2018-07-10T08:10:04.472Z,58.20
2018-07-10T08:12:33.514Z,58.50
2018-07-10T08:15:03.237Z,58.50
2018-07-10T08:20:05.254Z,58.10
2018-07-10T08:22:34.298Z,58.60
2018-07-10T08:27:33.769Z,59.00
2018-07-10T08:30:02.841Z,59.30
2018-07-10T08:32:32.038Z,59.40
2018-07-10T08:35:01.139Z,59.90
2018-07-10T08:37:30.145Z,60.00
2018-07-10T08:39:59.193Z,60.10
2018-07-10T08:42:28.575Z,60.20
2018-07-10T08:44:57.599Z,60.30
2018-07-10T08:47:26.681Z,60.10
2018-07-10T08:49:56.135Z,59.70
2018-07-10T08:52:25.227Z,59.80
2018-07-10T08:54:54.245Z,58.70
2018-07-10T08:57:23.282Z,58.70
2018-07-10T08:59:53.392Z,57.70
2018-07-10T09:02:22.369Z,57.70
2018-07-10T09:04:51.403Z,56.70
2018-07-10T09:07:20.421Z,55.40
2018-07-10T09:09:49.475Z,54.90
2018-07-10T09:12:18.489Z,55.90
2018-07-10T09:14:47.604Z,55.20
2018-07-10T09:17:16.619Z,56.60
2018-07-10T09:19:45.671Z,56.00
2018-07-10T09:22:14.689Z,55.00
2018-07-10T09:24:48.316Z,55.40
2018-07-10T09:27:20.922Z,56.90
2018-07-10T09:29:50.353Z,55.40
2018-07-10T09:32:25.292Z,55.30
2018-07-10T09:34:55.862Z,55.40
2018-07-10T09:37:30.357Z,55.40
2018-07-10T09:40:31.515Z,55.10
2018-07-10T09:43:03.240Z,54.60
2018-07-10T09:45:33.134Z,54.40
2018-07-10T09:48:03.085Z,54.20
2018-07-10T09:50:32.145Z,54.40
2018-07-10T09:53:02.065Z,54.50
2018-07-10T09:55:31.297Z,54.60
2018-07-10T09:58:00.858Z,54.50
2018-07-10T10:00:35.854Z,54.60
2018-07-10T10:03:04.972Z,54.40
2018-07-10T10:05:42.210Z,54.50
2018-07-10T10:08:11.592Z,54.50
2018-07-10T10:10:41.536Z,54.70
2018-07-10T10:13:10.584Z,54.70
2018-07-10T10:15:39.577Z,54.80
2018-07-10T10:18:09.506Z,55.00
2018-07-10T10:23:10.594Z,54.80
2018-07-10T10:25:42.028Z,55.10
2018-07-10T10:28:11.102Z,55.20
2018-07-10T10:30:40.751Z,54.30
2018-07-10T10:33:10.452Z,55.10
2018-07-10T10:35:39.708Z,55.30
2018-07-10T10:38:08.698Z,55.40
2018-07-10T10:40:39.177Z,55.50
2018-07-10T10:43:10.086Z,55.60
2018-07-10T10:45:40.850Z,55.60
2018-07-10T10:48:10.213Z,55.80
2018-07-10T10:50:42.103Z,55.50
2018-07-10T10:53:11.095Z,55.60
2018-07-10T10:55:40.106Z,55.60
2018-07-10T10:58:09.325Z,56.70
2018-07-10T11:00:38.899Z,56.40
2018-07-10T11:03:07.954Z,56.50
2018-07-10T11:05:37.593Z,56.70
2018-07-10T11:08:06.677Z,56.80
2018-07-10T11:10:36.014Z,56.90
2018-07-10T11:13:05.445Z,57.10
2018-07-10T11:15:39.942Z,57.40
2018-07-10T11:18:11.102Z,57.40
2018-07-10T11:21:02.255Z,57.60
2018-07-10T11:23:42.025Z,57.80
2018-07-10T11:26:12.727Z,57.80
2018-07-10T11:28:41.756Z,58.10
2018-07-10T11:31:10.790Z,59.10
2018-07-10T11:33:39.807Z,59.20
2018-07-10T11:36:09.250Z,58.70
2018-07-10T11:38:38.456Z,58.70
2018-07-10T11:41:07.502Z,58.90
2018-07-10T11:43:36.513Z,59.10
2018-07-10T11:46:05.682Z,59.50
2018-07-10T11:48:34.785Z,59.00
2018-07-10T11:51:03.809Z,59.50
2018-07-10T11:53:33.006Z,60.00
2018-07-10T11:56:02.021Z,60.10
2018-07-10T11:58:31.041Z,60.30
2018-07-10T12:01:00.100Z,60.70
2018-07-10T12:03:39.829Z,61.70
2018-07-10T12:08:38.623Z,62.10
2018-07-10T12:11:15.930Z,61.30
2018-07-10T12:13:45.293Z,62.60
2018-07-10T12:16:14.717Z,62.40
2018-07-10T12:18:43.783Z,63.10
2018-07-10T12:21:14.633Z,63.50
2018-07-10T12:23:43.979Z,64.00
2018-07-10T12:26:13.114Z,63.80
2018-07-10T12:28:42.157Z,64.10
2018-07-10T12:31:11.233Z,64.80
2018-07-10T12:33:40.221Z,64.60
2018-07-10T12:38:37.827Z,65.80
2018-07-10T12:41:06.895Z,66.00
2018-07-10T12:43:35.892Z,66.90
2018-07-10T12:46:04.905Z,68.20
2018-07-10T12:48:33.941Z,67.60
2018-07-10T12:51:03.201Z,67.80
2018-07-10T12:53:32.252Z,67.90
2018-07-10T12:56:01.624Z,67.50
2018-07-10T12:58:31.815Z,67.70
2018-07-10T13:01:00.887Z,67.40
2018-07-10T13:05:59.422Z,66.90
2018-07-10T13:08:28.417Z,67.90
2018-07-10T13:10:57.437Z,68.20
2018-07-10T13:13:26.477Z,69.30
2018-07-10T13:18:27.780Z,69.90
2018-07-10T13:20:56.797Z,72.40
2018-07-10T13:23:25.941Z,72.50
2018-07-10T13:25:54.947Z,74.30
2018-07-10T13:28:23.974Z,74.80
2018-07-10T13:30:52.989Z,75.40
2018-07-10T13:33:22.035Z,76.10
2018-07-10T13:35:51.047Z,75.40
2018-07-10T13:38:21.263Z,76.80
2018-07-10T13:40:51.237Z,77.20
2018-07-10T13:45:48.911Z,76.70
2018-07-10T13:48:17.954Z,78.10
2018-07-10T13:50:47.055Z,77.50
2018-07-10T13:53:16.065Z,77.90
2018-07-10T13:55:45.110Z,78.30
2018-07-10T13:58:16.859Z,78.10
2018-07-10T14:00:48.129Z,77.60
2018-07-10T14:03:17.137Z,77.60
2018-07-10T14:05:46.141Z,76.90
2018-07-10T14:08:15.129Z,77.40
2018-07-10T14:10:44.183Z,77.70
2018-07-10T14:13:13.198Z,76.40
2018-07-10T14:15:42.176Z,77.30
2018-07-10T14:18:11.557Z,77.80
2018-07-10T14:20:46.861Z,77.50
2018-07-10T14:23:15.949Z,78.50
2018-07-10T14:25:44.927Z,79.50
2018-07-10T14:28:14.155Z,79.50
2018-07-10T14:30:43.169Z,79.50
2018-07-10T14:33:12.209Z,79.80
2018-07-10T14:35:41.222Z,80.00
2018-07-10T14:38:11.813Z,79.40
2018-07-10T14:40:44.589Z,78.30
2018-07-10T14:45:46.288Z,81.10
2018-07-10T14:48:15.972Z,81.90
2018-07-10T14:50:45.099Z,82.50
2018-07-10T14:53:14.108Z,81.00
2018-07-10T14:55:43.112Z,82.40
2018-07-10T14:58:12.124Z,82.80
2018-07-10T15:00:41.190Z,82.20
2018-07-10T15:03:10.200Z,81.40
2018-07-10T15:05:39.166Z,82.20
2018-07-10T15:08:08.206Z,83.00
2018-07-10T15:10:37.341Z,82.70
2018-07-10T15:13:06.389Z,83.20
2018-07-10T15:15:35.380Z,82.60
2018-07-10T15:18:09.799Z,83.00
2018-07-10T15:20:38.840Z,83.40
2018-07-10T15:23:07.855Z,83.30
2018-07-10T15:25:36.885Z,83.40
2018-07-10T15:28:06.025Z,84.20
2018-07-10T15:30:35.062Z,83.90
2018-07-10T15:33:04.097Z,85.00
2018-07-10T15:35:33.081Z,85.40
2018-07-10T15:38:02.275Z,85.60
2018-07-10T15:40:31.285Z,85.50
2018-07-10T15:43:00.357Z,85.50
2018-07-10T15:45:29.333Z,86.20
2018-07-10T15:48:02.081Z,85.20
2018-07-10T15:50:31.161Z,86.20
2018-07-10T15:53:00.239Z,85.90
2018-07-10T15:55:29.365Z,86.60
2018-07-10T15:57:58.392Z,87.10
2018-07-10T16:00:27.430Z,86.60
2018-07-10T16:02:56.745Z,87.40
2018-07-10T16:05:25.806Z,87.40
2018-07-10T16:08:02.908Z,87.40
2018-07-10T16:10:31.959Z,87.90
2018-07-10T16:13:01.115Z,88.50
2018-07-10T16:15:30.332Z,87.80
2018-07-10T16:17:59.452Z,88.10
2018-07-10T16:20:28.462Z,88.60
2018-07-10T16:22:57.768Z,87.90
2018-07-10T16:25:29.734Z,86.70
2018-07-10T16:27:59.652Z,87.00
2018-07-10T16:30:28.793Z,88.60
2018-07-10T16:32:57.822Z,87.80
2018-07-10T16:35:29.012Z,89.20
2018-07-10T16:38:00.544Z,87.80
2018-07-10T16:40:29.580Z,88.10
2018-07-10T16:42:58.994Z,88.70
2018-07-10T16:45:31.079Z,88.10
2018-07-10T16:48:13.496Z,88.10
2018-07-10T16:50:45.424Z,89.10
2018-07-10T16:53:16.794Z,89.40
2018-07-10T16:55:45.864Z,89.20
2018-07-10T16:58:15.548Z,90.10
2018-07-10T17:00:44.564Z,89.60
2018-07-10T17:03:13.626Z,89.30
2018-07-10T17:05:42.684Z,90.20
2018-07-10T17:08:11.744Z,90.10
2018-07-10T17:10:40.870Z,89.90
2018-07-10T17:13:09.966Z,90.20
2018-07-10T17:15:39.020Z,89.70
2018-07-10T17:18:08.020Z,90.30
2018-07-10T17:20:37.052Z,90.00
2018-07-10T17:23:06.216Z,90.40
2018-07-10T17:25:35.278Z,90.00
2018-07-10T17:28:04.388Z,89.60
2018-07-10T17:30:33.394Z,90.50
2018-07-10T17:33:02.506Z,89.80
2018-07-10T17:35:31.559Z,90.30
2018-07-10T17:38:00.662Z,90.20
2018-07-10T17:40:29.742Z,89.80
2018-07-10T17:45:27.402Z,90.30
2018-07-10T17:47:56.411Z,90.60
2018-07-10T17:50:25.466Z,90.70
2018-07-10T17:52:54.494Z,91.10
2018-07-10T17:55:23.713Z,91.10
2018-07-10T17:57:58.473Z,90.80
2018-07-10T18:00:27.501Z,90.40
2018-07-10T18:02:56.537Z,90.70
2018-07-10T18:05:25.681Z,90.80
2018-07-10T18:07:54.727Z,90.60
2018-07-10T18:10:23.938Z,91.00
2018-07-10T18:12:53.797Z,90.50
2018-07-10T18:15:22.969Z,91.20
2018-07-10T18:17:52.945Z,91.60
2018-07-10T18:20:22.050Z,90.40
2018-07-10T18:22:51.513Z,91.40
2018-07-10T18:25:20.544Z,91.10
2018-07-10T18:27:49.549Z,91.60
2018-07-10T18:30:18.537Z,91.50
2018-07-10T18:32:47.565Z,91.40
2018-07-10T18:35:16.639Z,91.30
2018-07-10T18:37:45.657Z,91.50
2018-07-10T18:40:14.879Z,91.00
2018-07-10T18:42:43.975Z,91.20
2018-07-10T18:45:13.077Z,91.50
2018-07-10T18:47:42.747Z,91.30
2018-07-10T18:50:11.911Z,90.70
2018-07-10T18:52:41.005Z,91.00
2018-07-10T18:55:10.044Z,91.10
2018-07-10T18:58:48.032Z,90.60
2018-07-10T19:01:23.665Z,90.90
2018-07-10T19:03:52.727Z,91.50
2018-07-10T19:06:22.645Z,91.20
2018-07-10T19:08:51.938Z,91.50
2018-07-10T19:11:24.633Z,91.50
2018-07-10T19:13:53.747Z,91.40
2018-07-10T19:16:23.584Z,91.20
2018-07-10T19:18:53.441Z,91.60
2018-07-10T19:21:27.887Z,91.70
2018-07-10T19:24:00.570Z,90.90
2018-07-10T19:26:30.126Z,91.00
2018-07-10T19:29:06.354Z,91.60
2018-07-10T19:31:36.109Z,91.60
2018-07-10T19:34:05.365Z,91.40
2018-07-10T19:36:34.448Z,91.70
2018-07-10T19:39:05.763Z,91.60
2018-07-10T19:41:34.774Z,91.70
2018-07-10T19:44:06.987Z,91.70
2018-07-10T19:46:36.665Z,91.40
2018-07-10T19:49:06.526Z,91.40
2018-07-10T19:51:35.584Z,91.40
2018-07-10T19:54:09.360Z,91.10
2018-07-10T19:56:39.089Z,91.80
2018-07-10T19:59:09.316Z,92.00
2018-07-10T20:01:44.410Z,92.00
2018-07-10T20:04:20.601Z,91.90
2018-07-10T20:06:58.587Z,91.30
2018-07-10T20:09:31.452Z,91.30
2018-07-10T20:12:19.304Z,91.50
2018-07-10T20:14:54.133Z,90.70
2018-07-10T20:17:25.602Z,91.00
2018-07-10T20:19:59.562Z,91.00
2018-07-10T20:22:35.179Z,90.40
2018-07-10T20:25:07.131Z,91.10
2018-07-10T20:29:12.817Z,90.30
2018-07-10T20:31:47.382Z,91.70
2018-07-10T20:34:24.011Z,91.70
2018-07-10T20:36:54.440Z,91.80
2018-07-10T20:39:32.754Z,91.80
2018-07-10T20:42:03.155Z,91.70
2018-07-10T20:44:35.709Z,91.70
2018-07-10T20:47:04.932Z,91.30
2018-07-10T20:49:52.520Z,91.90
2018-07-10T20:53:37.470Z,91.20
2018-07-10T20:56:13.678Z,91.50
2018-07-10T20:58:50.921Z,92.10
2018-07-10T21:01:19.931Z,91.60
2018-07-10T21:03:52.628Z,91.30
2018-07-10T21:06:57.289Z,91.30
2018-07-10T21:09:39.426Z,92.00
2018-07-10T21:12:14.016Z,91.20
2018-07-10T21:15:00.103Z,91.80
2018-07-10T21:17:51.112Z,91.60
2018-07-10T21:21:28.326Z,92.20
2018-07-10T21:24:04.634Z,92.30
2018-07-10T21:30:02.462Z,91.60
2018-07-10T21:32:38.977Z,91.50
2018-07-10T21:35:09.022Z,91.50
2018-07-10T21:38:50.231Z,92.00
2018-07-10T21:41:32.726Z,91.90
2018-07-10T21:46:19.219Z,91.30
2018-07-10T21:49:58.458Z,91.20
2018-07-10T21:52:27.596Z,90.00
2018-07-10T21:54:56.586Z,91.00
2018-07-10T21:57:32.854Z,90.60
2018-07-10T22:00:02.874Z,90.80
2018-07-10T22:02:31.838Z,90.70
2018-07-10T22:05:00.903Z,90.50
2018-07-10T22:10:02.005Z,90.20
2018-07-10T22:12:31.049Z,90.40
2018-07-10T22:15:00.137Z,90.40
2018-07-10T22:17:29.192Z,89.70
2018-07-10T22:19:58.691Z,90.20
2018-07-10T22:22:30.048Z,91.00
2018-07-10T22:25:08.586Z,90.60
2018-07-10T22:27:40.197Z,90.00
2018-07-10T22:32:49.588Z,90.80
2018-07-10T22:35:18.600Z,91.50
2018-07-10T22:37:47.650Z,90.20
2018-07-10T22:40:18.110Z,88.60
2018-07-10T22:42:48.384Z,90.20
2018-07-10T22:45:18.432Z,90.70
2018-07-10T22:47:47.456Z,90.50
2018-07-10T22:50:19.458Z,90.00
2018-07-10T22:52:56.643Z,90.30
2018-07-10T22:55:29.019Z,89.50
2018-07-10T22:58:04.124Z,89.90
2018-07-10T23:00:40.081Z,90.40
2018-07-10T23:03:19.710Z,89.60
2018-07-10T23:05:50.513Z,89.90
2018-07-10T23:08:35.684Z,89.00
2018-07-10T23:11:06.901Z,88.90
2018-07-10T23:13:41.892Z,88.30
2018-07-10T23:16:10.911Z,88.70
2018-07-10T23:18:41.037Z,88.80
2018-07-10T23:21:12.435Z,88.30
2018-07-10T23:23:41.545Z,90.20
2018-07-10T23:26:12.985Z,90.20
2018-07-10T23:28:42.217Z,90.90
2018-07-10T23:31:13.381Z,90.30
2018-07-10T23:33:44.532Z,89.30
2018-07-10T23:36:14.241Z,90.70
2018-07-10T23:38:55.360Z,90.40
2018-07-10T23:41:38.188Z,90.50
2018-07-10T23:44:09.111Z,89.90
2018-07-10T23:46:44.446Z,88.20
2018-07-10T23:49:14.550Z,88.40
2018-07-10T23:51:55.082Z,90.00
2018-07-10T23:54:24.124Z,90.00
2018-07-10T23:56:53.205Z,88.20
2018-07-10T23:59:22.480Z,90.30
